Jeanie G — WDB2354 — position and weather

sailwx.info

Track history (hours):
 
Tides and Currents Weather Stations Pressure Air Temp Water Temp Dewpoint Dewpoint Depression Visibility Wind Speed Wind Dir Waves Ship Positions

Jeanie G

More information available from US FCC via Universal Licensing System and Coast Guard Vessel Documentation Center.

Last reported at 2014-Jul-14 20:08 UTC. Time now 2014-Jul-24 08:26 UTC.
Position N 29°27' W 094°51'.
Warning: this ship's position is 9 days out of date.

MMSI: 366875010.

Date/timePositionNaut miles runAvg speedWind from/ knotsBaromVisibWave heightAir tempDewpointWater temp
2014-Jul-14 20:08N 29°27' W 094°51'3 4.9
2014-Jul-14 19:33N 29°30' W 094°52'5 4.8
2014-Jul-14 18:33N 29°34' W 094°55'5 4.5
2014-Jul-14 17:33N 29°38' W 094°58'4 4.4
2014-Jul-14 16:33N 29°42' W 094°60'4 4.0
2014-Jul-14 15:33N 29°44' W 095°03'3 3.0
2014-Jul-14 14:33N 29°46' W 095°06'2 2.3
2014-Jul-14 13:33N 29°45' W 095°04'6 5.8
2014-Jul-14 12:33N 29°41' W 094°59'6 6.3
2014-Jul-14 11:33N 29°35' W 094°56'7 6.4
2014-Jul-14 10:33N 29°30' W 094°52'  
Track history (hours):
 
Tides and Currents Weather Stations Pressure Air Temp Water Temp Dewpoint Dewpoint Depression Visibility Wind Speed Wind Dir Waves Ship Positions

Jeanie G

More information available from US FCC via Universal Licensing System and Coast Guard Vessel Documentation Center.

Last reported at 2014-Jul-14 20:08 UTC. Time now 2014-Jul-24 08:26 UTC.
Position N 29°27' W 094°51'.
Warning: this ship's position is 9 days out of date.

MMSI: 366875010.

Date/timePositionNaut miles runAvg speedWind from/ knotsBaromVisibWave heightAir tempDewpointWater temp
2014-Jul-14 20:08N 29°27' W 094°51'3 4.9
2014-Jul-14 19:33N 29°30' W 094°52'5 4.8
2014-Jul-14 18:33N 29°34' W 094°55'5 4.5
2014-Jul-14 17:33N 29°38' W 094°58'4 4.4
2014-Jul-14 16:33N 29°42' W 094°60'4 4.0
2014-Jul-14 15:33N 29°44' W 095°03'3 3.0
2014-Jul-14 14:33N 29°46' W 095°06'2 2.3
2014-Jul-14 13:33N 29°45' W 095°04'6 5.8
2014-Jul-14 12:33N 29°41' W 094°59'6 6.3
2014-Jul-14 11:33N 29°35' W 094°56'7 6.4
2014-Jul-14 10:33N 29°30' W 094°52'  

Dump ship's entire track history